Weather observations for the past three days for
Sauk Centre Municipal Airport
Metric (Imperial)
Date Time (cdt) Wind (kph) Vis. (km) Weather Sky Cond. Temperature (ºC) Relative Humidity Wind Chill (°C) Heat Index (°C) Pressure Precipitation (cm)
Air Dwpt 6 hour altimeter (cm) sea level (mb) 1 hr 3 hr 6 hr
Max. Min.
10 14:55 NW 17 G 35 16.09 Fair CLR 12.8 -6.4 26% 76.61 0.0
10 14:35 NW 26 G 35 16.09 Fair CLR 12.5 -5.9 27% 76.61 0.0
10 14:15 NW 22 G 31 16.09 Fair CLR 12.5 -5.5 28% 76.61 0.0
10 13:55 W 22 G 37 16.09 Fair CLR 12.8 -5.2 28% 76.61 0.0
10 13:35 NW 26 G 44 16.09 Fair CLR 12.2 -4.8 30% 76.61 0.0
10 13:15 NW 24 G 43 16.09 Partly Cloudy SCT065 SCT075 SCT120 12.2 -3.8 33% 76.61 0.0
10 12:55 NW 33 16.09 Fair and Breezy CLR 11.9 -3.8 12 6 33% 76.61 0.0
10 12:35 NW 33 G 44 16.09 Partly Cloudy and Breezy SCT060 11.9 -4 33% 76.61 0.0
10 12:15 NW 30 G 37 16.09 Partly Cloudy SCT060 11.4 -3.8 35% 76.61 0.0
10 11:55 NW 26 G 35 16.09 Partly Cloudy SCT060 10.9 -3.9 35% 76.61 0.0
10 11:35 NW 26 G 37 16.09 Fair CLR 10.4 -4.1 36% 76.61 0.0
10 11:15 NW 20 G 35 16.09 Fair CLR 9.9 -4.2 37% 7 76.61 0.0
10 10:55 NW 24 G 35 16.09 Fair CLR 9.8 -4.2 37% 7 76.58 0.0
10 10:35 NW 22 G 31 16.09 Fair CLR 9.2 -4.2 39% 6 76.58 0.0
10 10:15 NW 20 G 30 16.09 Partly Cloudy SCT075 8.8 -4.6 39% 6 76.58 0.0
10 09:55 N 22 G 33 16.09 Partly Cloudy SCT080 8.3 -4.8 39% 5 76.58 0.0
10 09:35 N 22 G 28 16.09 Partly Cloudy SCT080 7.6 -4.3 43% 4 76.58 0.0
10 09:15 N 17 16.09 Mostly Cloudy SCT070 BKN085 7.2 -3.2 48% 5 76.58 0.0
10 08:55 N 19 16.09 Mostly Cloudy BKN075 BKN110 6.8 -2.9 50% 4 76.56 0.0
10 08:35 N 20 16.09 Mostly Cloudy BKN090 BKN110 6.6 -3.3 50% 3 76.56 0.0
10 08:15 N 26 G 33 16.09 Overcast OVC090 6.4 -2.9 52% 3 76.56 0.0
10 07:55 N 20 16.09 Overcast OVC090 6.3 -1.5 58% 3 76.53 0.0
10 07:35 N 17 16.09 Overcast OVC090 6.5 -1.6 57% 4 76.53 0.0
10 06:55 N 9 16.09 Overcast BKN070 OVC090 6 -1.7 6.2 2.6 58% 4 76.48 0.0
10 06:35 NW 11 16.09 Overcast BKN070 OVC090 5.7 -1.2 62% 4 76.45 0.0
10 06:15 Calm 16.09 Overcast SCT070 OVC090 5.6 -1 63% 76.43 0.0
10 05:55 Calm 16.09 Overcast SCT070 OVC090 5.7 -2 58% 76.43 0.0
10 05:35 N 9 16.09 Overcast OVC100 6 -2.4 55% 4 76.4 0.0
10 05:15 N 9 16.09 Overcast OVC100 6.1 -2.3 55% 4 76.38 0.0
10 04:55 N 11 16.09 Overcast OVC100 5.7 -1.5 60% 4 76.35 0.0
10 04:35 NW 11 16.09 Overcast OVC100 5.5 -1 63% 3 76.35 0.0
10 04:15 N 11 16.09 Overcast OVC100 5.6 -1.5 61% 3 76.33 0.0
10 03:55 NW 7 16.09 Overcast OVC100 5.1 -1.5 63% 4 76.3 0.0
10 03:35 N 7 16.09 Overcast OVC100 5.5 -1.8 60% 4 76.28 0.0
10 03:15 N 7 16.09 Overcast OVC100 5 -1.9 61% 4 76.25 0.0
10 02:55 Calm 16.09 Overcast OVC100 4.1 -1.4 68% 76.23 0.0
10 02:35 W 7 16.09 Mostly Cloudy BKN100 BKN120 4.4 -1.8 64% 3 76.23 0.0
10 02:15 W 7 16.09 Overcast OVC100 4.9 -2.3 60% 3 76.25 0.0
10 01:55 W 6 16.09 Overcast OVC100 4.7 -2.5 60% 76.23 0.0
10 01:35 Calm 16.09 Overcast OVC100 3.2 -1.8 70% 76.23 0.0
10 01:15 SW 6 16.09 Overcast OVC100 3.1 -2.3 68% 76.23 0.0
10 00:55 W 6 16.09 Mostly Cloudy BKN100 BKN120 3.6 -2.7 13.1 3.6 64% 76.23 0.0
10 00:35 Calm 16.09 Partly Cloudy SCT100 SCT120 4.6 -3.1 58% 76.23 0.0
10 00:15 Calm 16.09 Mostly Cloudy SCT090 BKN120 5.5 -3.1 54% 76.2 0.0
09 23:55 W 6 16.09 Overcast OVC090 5.8 -3.1 53% 76.2 0.0
09 23:35 W 9 16.09 Overcast OVC090 5.2 -2.5 58% 3 76.2 0.0
09 23:15 W 9 16.09 Overcast OVC090 5.5 -2.2 58% 4 76.2 0.0
09 22:55 W 7 16.09 Overcast OVC090 6.1 -2 56% 5 76.17 0.0
09 22:35 W 7 16.09 Overcast OVC090 7.3 -2.6 50% 6 76.17 0.0
09 22:15 NW 6 16.09 Overcast OVC090 8.6 -3 44% 76.17 0.0
09 21:55 NW 7 16.09 Overcast OVC090 8.7 -3.1 44% 8 76.17 0.0
09 21:35 NW 9 16.09 Overcast OVC090 9.2 -3.5 41% 8 76.15 0.0
09 21:15 NW 11 16.09 Mostly Cloudy BKN090 BKN110 9.5 -4.2 38% 8 76.12 0.0
09 20:55 NW 13 16.09 Partly Cloudy SCT090 9.9 -4.7 36% 8 76.1 0.0
09 20:35 NW 19 16.09 Fair CLR 10.6 -5.1 33% 76.07 0.0
09 20:15 NW 20 16.09 Partly Cloudy SCT075 11.3 -4.7 33% 76.05 0.0
09 19:55 NW 19 G 28 16.09 Mostly Cloudy BKN075 12.1 -4.2 32% 76.02 0.0
09 19:35 NW 22 G 33 16.09 Mostly Cloudy BKN075 12.1 -4.6 31% 76.02 0.0
09 19:15 NW 31 G 43 16.09 Mostly Cloudy BKN075 12.7 -5.1 29% 76 0.0
09 18:55 NW 26 G 39 16.09 Partly Cloudy SCT075 13 -4.5 13.9 11.2 30% 75.97 0.0
09 18:35 NW 28 G 44 16.09 Fair CLR 13.3 -5 28% 75.95 0.0
09 18:15 NW 30 G 37 16.09 Partly Cloudy SCT070 13.1 -4.6 29% 75.95 0.0
09 17:55 W 26 G 39 16.09 Partly Cloudy SCT070 SCT095 13.3 -4.2 30% 75.95 0.0
09 17:35 NW 26 G 39 16.09 Partly Cloudy SCT070 SCT095 13.7 -4.1 29% 75.92 0.0
09 17:15 W 20 G 41 16.09 Partly Cloudy SCT070 13.7 -3.3 31% 75.92 0.0
09 16:55 NW 22 G 41 16.09 Partly Cloudy SCT070 13.4 -3.2 32% 75.92 0.0
09 16:35 NW 24 G 41 16.09 Partly Cloudy SCT065 13.3 -3.3 32% 75.9 0.0
09 16:15 NW 30 G 37 16.09 Partly Cloudy SCT065 13.5 -3.1 32% 75.9 0.0
09 15:55 NW 20 G 39 16.09 Partly Cloudy SCT065 13.5 -3 32% 75.9 0.0
09 15:35 NW 22 G 46 16.09 Fair CLR 13.3 -3.3 32% 75.9 0.0
09 15:15 NW 28 G 43 16.09 Fair CLR 13 -3.4 32% 75.87 0.0
09 14:55 NW 24 G 41 16.09 Fair CLR 13 -3.1 33% 75.87 0.0
09 14:35 NW 22 G 44 16.09 Fair CLR 12.7 -3.2 33% 75.87 0.0
09 14:15 NW 26 G 43 16.09 Fair CLR 12.6 -2.6 35% 75.87 0.0
09 13:55 NW 30 G 41 16.09 Fair CLR 12.2 -2.7 36% 75.84 0.0
09 13:35 NW 31 G 39 16.09 Fair CLR 12.3 -2.2 37% 75.84 0.0
09 13:15 NW 24 G 35 16.09 Fair CLR 11.7 -2.2 38% 75.82 0.0
09 12:55 NW 28 G 41 16.09 Fair CLR 11.5 -2.5 11.6 6.1 38% 75.82 0.0
09 12:35 NW 26 G 37 16.09 Fair CLR 11.4 -2.6 38% 75.82 0.0
09 12:15 NW 19 G 33 16.09 Fair CLR 11.2 -1.7 41% 75.82 0.0
09 11:55 NW 31 G 41 16.09 Fair CLR 10.6 -3 39% 75.79 0.0
09 11:35 NW 24 G 39 16.09 Fair CLR 10.7 -2.3 40% 75.77 0.0
09 10:55 NW 30 G 44 16.09 Fair CLR 9.5 -2.7 43% 6 75.74 0.0
09 10:35 NW 28 G 39 16.09 Partly Cloudy SCT045 9.9 -1.6 45% 7 75.72 0.0
09 10:15 NW 22 G 35 16.09 Fair CLR 9.2 -0.3 52% 6 75.72 0.0
09 09:55 NW 28 G 35 16.09 Fair CLR 9.5 -0.2 51% 6 75.69 0.0
09 09:35 N 24 16.09 Fair CLR 8.7 -0.4 53% 6 75.67 0.0
09 09:15 NW 24 G 31 16.09 Fair CLR 8.5 -0.1 55% 5 75.67 0.0
09 08:55 N 26 G 37 16.09 Fair CLR 8 0 57% 5 75.64 0.0
09 08:35 NW 24 G 31 16.09 Fair CLR 7.7 1.3 64% 4 75.62 0.0
09 08:15 NW 20 16.09 Fair CLR 7.3 2 69% 4 75.59 0.0
09 07:55 NW 20 G 31 16.09 Fair CLR 7 2.7 74% 4 75.57 0.0
09 07:35 NW 20 G 28 16.09 Fair CLR 6.7 4.5 86% 3 75.54 0.0
09 07:15 NW 19 16.09 Fair CLR 6.2 5.3 94% 3 75.51 0.0
09 06:55 NW 13 16.09 Fair CLR 6 6 11.5 5.6 100% 4 75.49 0.0 0.1
09 06:35 NW 9 16.09 Fair CLR 5.8 5.8 100% 4 75.46 0.0
09 06:15 NW 13 16.09 Fair CLR 5.8 5.8 100% 3 75.41 0.0
09 05:55 NW 20 G 28 16.09 Partly Cloudy SCT012 SCT033 6.2 6.2 100% 3 75.39 0.0
09 05:35 NW 20 G 31 16.09 Mostly Cloudy BKN012 6.7 6.7 100% 3 75.39 0.0
09 05:15 NW 20 16.09 Mostly Cloudy BKN012 7.2 7.2 100% 4 75.36 0.0
09 04:55 NW 24 G 35 16.09 Mostly Cloudy BKN015 7.6 7.6 100% 4 75.31 0.0
09 04:35 W 11 16.09 Mostly Cloudy SCT015 BKN060 BKN075 7.3 7.3 100% 5 75.31 0.0
09 04:15 W 11 16.09 Overcast SCT048 BKN060 OVC100 7.3 7.3 100% 5 75.29 0.0
09 03:55 W 7 16.09 Overcast SCT048 BKN070 OVC095 7.7 7.7 100% 7 75.23 0.0 0.03 0.1
09 03:35 W 6 16.09 Light Rain BKN050 BKN070 BKN085 8 8 100% 75.23 0.0 0.03
09 03:15 W 6 16.09 Drizzle BKN055 BKN070 OVC120 8.1 8.1 100% 75.21 0.0
09 02:55 N 7 11.27 Light Rain SCT012 SCT031 SCT050 7.7 7.7 100% 7 75.26 0.0 0.08
09 02:35 NW 7 16.09 Rain CLR 8 8 100% 7 75.26 0.0 0.03
09 02:15 NW 20 G 35 16.09 Light Rain SCT050 SCT070 SCT110 8.3 6.8 90% 5 75.29 0.0
09 01:55 N 20 G 33 16.09 Light Rain SCT050 SCT070 OVC110 9 6.5 85% 6 75.26 0.0
09 01:35 N 24 G 39 16.09 Drizzle SCT060 SCT080 OVC110 9.5 6.4 81% 7 75.26 0.0
09 01:15 NW 33 G 44 16.09 Light Rain and Breezy SCT070 OVC080 10.7 5.5 71% 75.31 0.0
09 00:55 NW 20 16.09 Overcast OVC080 11.5 0.1 17.8 6.4 46% 75.31 0.0
09 00:35 W 24 G 30 16.09 Overcast OVC080 10.3 0 49% 75.26 0.0
09 00:15 W 9 16.09 Overcast BKN080 BKN100 OVC110 8.5 -1.3 50% 7 75.23 0.0
08 23:55 Calm 16.09 Overcast SCT090 OVC110 7.6 -0.9 55% 75.18 0.0
08 23:35 S 6 16.09 Partly Cloudy SCT110 7 -1.7 54% 75.18 0.0
08 23:15 S 7 16.09 Fair CLR 7.1 -1.8 54% 6 75.21 0.0
08 22:55 S 6 16.09 Fair CLR 7.6 -2.3 50% 75.21 0.0
08 22:35 Calm 16.09 Fair CLR 6.8 -2.1 53% 75.26 0.0
08 22:15 S 6 16.09 Fair CLR 8 -2 50% 75.26 0.0
08 21:55 Calm 16.09 Fair CLR 9 -2 46% 75.26 0.0
08 21:35 Calm 16.09 Fair CLR 10.7 -2.5 40% 75.26 0.0
08 21:15 Calm 16.09 Fair CLR 11.6 -2.6 37% 75.26 0.0
08 20:55 NW 6 16.09 Fair CLR 12.1 -2.6 36% 75.26 0.0
08 20:35 NW 9 16.09 Fair CLR 13.7 -2.6 32% 75.26 0.0
08 20:15 NW 15 16.09 Fair CLR 14.7 -2.9 30% 75.26 0.0
08 19:55 NW 22 G 33 16.09 Fair CLR 15.8 -3 28% 75.26 0.0
08 19:35 NW 30 G 41 16.09 Fair CLR 16.3 -2.9 27% 75.26 0.0
08 19:15 NW 30 G 41 16.09 Fair CLR 17.2 -1.7 28% 75.23 0.0
08 18:55 NW 30 G 46 16.09 Fair CLR 18 -1.5 21 18 27% 75.23 0.0
08 18:35 NW 28 G 54 16.09 Fair CLR 18.5 -2.1 25% 75.21 0.0
08 18:15 W 31 G 50 16.09 Fair CLR 18.8 -2.2 24% 75.21 0.0
08 17:55 NW 33 G 46 16.09 Fair and Breezy CLR 19.3 -1.6 24% 75.18 0.0
08 17:35 W 33 G 48 16.09 Fair and Breezy CLR 19.9 -2.3 22% 75.18 0.0
08 17:15 W 37 G 44 16.09 Partly Cloudy and Breezy SCT100 20.1 -3.3 20% 75.16 0.0
08 16:55 W 22 G 44 16.09 Partly Cloudy SCT110 19.9 -3.4 21% 75.16 0.0
08 16:35 W 22 G 35 16.09 Partly Cloudy SCT100 19.8 -3.3 21% 75.18 0.0
08 16:15 W 30 G 50 16.09 Partly Cloudy SCT100 19.9 -4 20% 75.18 0.0
08 15:55 W 28 G 50 16.09 Mostly Cloudy BKN100 20.3 -3.5 20% 75.18 0.0
08 15:35 W 39 G 46 16.09 Partly Cloudy and Breezy SCT110 20.9 -2.7 20% 75.21 0.0
08 15:15 W 33 G 50 16.09 Fair and Breezy CLR 20.3 -3.3 20% 75.23 0.0
08 14:55 W 22 G 39 16.09 Partly Cloudy SCT100 SCT120 20.3 -3.2 20% 75.23 0.0
08 14:35 W 19 G 43 16.09 Mostly Cloudy BKN100 20 -3.3 21% 75.26 0.0
08 14:15 W 20 G 33 16.09 Partly Cloudy SCT100 18.7 -4.2 21% 75.29 0.0
08 13:55 W 11 G 43 16.09 Partly Cloudy SCT100 19.6 -3.6 21% 75.31 0.0
08 13:35 W 17 G 31 16.09 Partly Cloudy SCT100 19.1 -3.8 21% 75.31 0.0
08 13:15 W 15 G 26 16.09 Partly Cloudy SCT110 19.3 -3.5 21% 75.34 0.0
08 12:55 W 26 G 35 16.09 Partly Cloudy SCT100 18.1 -4.7 18.4 2.5 21% 75.36 0.0
08 12:35 W 24 16.09 Mostly Cloudy BKN100 17.8 -4.2 22% 75.39 0.0
08 12:15 W 17 16.09 Partly Cloudy SCT090 17.4 -4.2 23% 75.41 0.0
08 11:55 NW 11 16.09 Mostly Cloudy BKN090 17.5 -5 21% 75.44 0.0
08 11:35 W 7 16.09 Partly Cloudy SCT090 SCT120 17.6 -4.7 22% 75.44 0.0
08 10:55 W 9 16.09 Fair CLR 16 -4.8 24% 75.46 0.0
08 10:35 W 13 16.09 Fair CLR 15.5 -4.9 24% 75.49 0.0
08 10:15 W 6 16.09 Fair CLR 14.3 -3.3 30% 75.49 0.0
08 09:55 W 9 16.09 Fair CLR 13.4 -2.3 34% 75.51 0.0
08 09:35 W 11 16.09 Fair CLR 12.1 -1.6 39% 75.54 0.0
08 09:15 SW 15 16.09 Partly Cloudy SCT090 11.4 -0.7 43% 75.54 0.0
08 08:55 W 7 16.09 Overcast OVC090 10 -0.9 47% 9 75.54 0.0
08 08:35 W 7 16.09 Overcast OVC090 9.2 -1.8 46% 8 75.54 0.0
08 08:15 Calm 16.09 Mostly Cloudy BKN100 7.6 -1.2 54% 75.54 0.0
08 07:55 S 6 16.09 Overcast OVC100 6.1 -1.1 60% 75.54 0.0
08 07:35 Calm 16.09 Overcast OVC100 4.6 -1 67% 75.57 0.0
08 07:15 S 6 16.09 Overcast OVC100 3.3 -0.7 75% 75.54 0.0
08 06:55 S 6 16.09 Overcast OVC100 3.4 -2.1 3.9 0 68% 75.57 0.0
08 06:35 Calm 16.09 Mostly Cloudy BKN100 1.7 -3.1 71% 75.54 0.0
08 06:15 Calm 16.09 Mostly Cloudy BKN100 2 -3.7 66% 75.54 0.0
08 05:55 Calm 16.09 Mostly Cloudy BKN100 0.3 -4 73% 75.54 0.0
08 05:35 Calm 16.09 Fair CLR 0.5 -3.4 75% 75.54 0.0
08 05:15 Calm 16.09 Fair CLR 0.8 -4.1 70% 75.57 0.0
08 04:55 Calm 16.09 Fair CLR 0.5 -4.2 71% 75.57 0.0
08 04:35 Calm 16.09 Fair CLR 1.6 -4.3 65% 75.57 0.0
08 04:15 Calm 16.09 Fair CLR 1.5 -4.2 66% 75.57 0.0
08 03:55 Calm 16.09 Fair CLR 1.5 -4 67% 75.57 0.0
08 03:35 Calm 16.09 Fair CLR 1.2 -3.5 71% 75.57 0.0
08 03:15 Calm 16.09 Fair CLR 2.2 -4.2 63% 75.59 0.0
08 02:55 Calm 16.09 Fair CLR 1 -3.6 72% 75.59 0.0
08 02:35 Calm 16.09 Fair CLR 1.7 -3.2 70% 75.59 0.0
08 02:15 Calm 16.09 Fair CLR 2.5 -3.4 65% 75.59 0.0
08 01:55 Calm 16.09 Fair CLR 3.2 -3.3 63% 75.59 0.0
08 01:35 N 9 16.09 Fair CLR 2.7 -4 62% 0 75.62 0.0
08 01:15 Calm 16.09 Fair CLR 3 -4.6 58% 75.62 0.0
08 00:55 Calm 16.09 Fair CLR 4.1 -4.7 13.7 2.5 53% 75.62 0.0
08 00:35 Calm 16.09 Fair CLR 3.4 -4.6 56% 75.64 0.0
08 00:15 Calm 16.09 Fair CLR 2.6 -4.5 60% 75.64 0.0
07 23:55 Calm 16.09 Fair CLR 4.1 -4.7 53% 75.64 0.0
07 23:35 Calm 16.09 Fair CLR 4.4 -5 51% 75.67 0.0
07 23:15 S 6 16.09 Fair CLR 3.8 -4.7 54% 75.67 0.0
07 22:55 S 6 16.09 Fair CLR 4.5 -4.8 51% 75.67 0.0
07 22:35 S 6 16.09 Fair CLR 4.2 -4.5 54% 75.69 0.0
07 22:15 Calm 16.09 Fair CLR 5.3 -4.6 49% 75.67 0.0
07 21:55 S 6 16.09 Fair CLR 7 -4.9 43% 75.67 0.0
07 21:35 Calm 16.09 Fair CLR 6.4 -4.6 46% 75.67 0.0
07 21:15 Calm 16.09 Fair CLR 7.8 -4.7 41% 75.67 0.0
07 20:55 W 6 16.09 Fair CLR 9.4 -5 36% 75.67 0.0
07 20:35 W 6 16.09 Fair CLR 10.1 -4.4 36% 75.67 0.0
07 20:15 W 7 16.09 Fair CLR 11.7 -4.7 32% 75.64 0.0
07 19:55 W 7 16.09 Fair CLR 12.7 -4.6 30% 75.64 0.0
07 19:35 W 11 16.09 Fair CLR 13.5 -5.3 27% 75.64 0.0
07 19:15 W 19 16.09 Fair CLR 13.4 -5.1 27% 75.64 0.0
07 18:55 W 17 16.09 Fair CLR 13.9 -5.7 14.8 11.3 25% 75.64 0.0
07 18:35 W 24 16.09 Fair CLR 14.1 -5.3 26% 75.67 0.0
07 18:15 W 19 16.09 Partly Cloudy SCT090 13.9 -5.6 26% 75.67 0.0
07 17:55 W 19 G 28 16.09 Partly Cloudy SCT090 14.3 -5.4 25% 75.67 0.0
07 17:35 W 15 G 30 16.09 Partly Cloudy SCT090 14.4 -5.4 25% 75.67 0.0
07 17:15 NW 20 G 31 16.09 Partly Cloudy SCT090 14.1 -5.6 25% 75.69 0.0
07 16:55 W 35 G 43 16.09 Mostly Cloudy and Breezy BKN090 13.5 -5.5 26% 75.69 0.0
07 16:35 W 24 G 33 16.09 Partly Cloudy SCT080 SCT110 13 -5.3 28% 75.72 0.0
07 16:15 W 22 G 37 16.09 Partly Cloudy SCT080 SCT120 13.6 -5.2 27% 75.72 0.0
07 15:55 W 28 G 35 16.09 Mostly Cloudy BKN080 14.2 -4.4 27% 75.72 0.0
07 15:35 W 11 G 35 16.09 Mostly Cloudy BKN080 13.8 -5.2 27% 75.74 0.0
07 15:15 W 22 16.09 Mostly Cloudy BKN080 13.3 -5 28% 75.74 0.0
Date Time (cdt) Wind (kph) Vis. (km) Weather Sky Cond. Air Dwpt Max. Min. Relative Humidity Wind Chill (°C) Heat Index (°C) altimeter (cm) sea level (mb) 1 hr 3 hr 6 hr
6 hour
Temperature (ºC) Pressure Precipitation (cm)